Iraklion/Nikos Kazantzakis

Airport
ICAO code: 
LGIR
IATA Code: 
HER
Summary
ICAO Region: 
EUR
Territory: 
Location: 
Nea Alikarnassos, Crete
Serving: 
Heraklion
Elevation: 
115 ft
Coordinates: 
Aerial View: 
35° 20' 22.916" N, 25° 10' 49.079" E
Metar
Observation
LGIR 300850Z 27020KT 9999 SCT025 20/08 Q1012 NOSIG
Station
Heraklion Airport
Date/Time
2021-11-30 08:50:00
Wind direction
270°
Wind speed
20 kts
Lowest cloud amount
scattered clouds
Temperature
20°C
Dew point
8°C
Humidity
45%
QNH
1012 hPa
Weather condition
n/a

Description

International airport serving Iraklion on the island of Crete.

Climatology

Mediterranean climate (Köppen climate classification Csa) - Hot, dry summer and a mild wet winter.

Runways

Designator Length Width Surface Rops
18/36 780 40 ASP No/No
12/30 1566 50 ASP Yes/Yes
9/27 2682 45 ASP Yes/Yes
Airport map: 
Aerial View: 

SKYbrary Partners:

Safety knowledge contributed by: